Willow Springs, Texas
Current Conditions -  °F | °C
As of 8:53 PM on Sunday 23 Nov 2014 (Local Time) from KCXO Reporting Station
Clear Clear  
Wind Chill: 66°   Ceiling: Unl
Heat Index: 66°   Visibility: 10mi
Dew Point: 53°   Wind: 6mph
Humidity: 63%   Direction: 210°SSW
Pressure: 29.65"   Gusts: NA
Location:  30.5835°N, 95.1294°W
Report Text: KCXO 240253Z 21005KT 10SM CLR 19/12 A2965 RMK AO2 SLP037 T01890117 51026
Loading
Personal Weather Stations






























Interactive Weather Map New forecast layout! Learn more

10-Day Weather Forecast

Advertisements
Track Severe Weather on mobile